createdAt,value
2022-12-18T00:01:24.667Z,102879.63
2022-12-18T00:03:52.409Z,102881.56
2022-12-18T00:06:19.816Z,102882.50
2022-12-18T00:08:46.733Z,102881.38
2022-12-18T00:11:15.863Z,102879.31
2022-12-18T00:13:43.126Z,102888.31
2022-12-18T00:16:12.669Z,102887.50
2022-12-18T00:18:39.798Z,102886.25
2022-12-18T00:21:11.570Z,102882.59
2022-12-18T00:23:39.122Z,102884.31
2022-12-18T00:26:17.987Z,102885.97
2022-12-18T00:28:44.761Z,102870.34
2022-12-18T00:31:14.016Z,102871.31
2022-12-18T00:33:41.134Z,102872.06
2022-12-18T00:36:16.003Z,102876.38
2022-12-18T00:38:46.247Z,102868.44
2022-12-18T00:41:35.410Z,102876.44
2022-12-18T00:44:03.970Z,102871.22
2022-12-18T00:46:30.642Z,102881.75
2022-12-18T00:48:57.106Z,102879.09
2022-12-18T00:51:23.864Z,102878.81
2022-12-18T00:53:50.341Z,102877.19
2022-12-18T00:56:16.745Z,102877.44
2022-12-18T00:58:43.141Z,102880.59
2022-12-18T01:01:10.152Z,102874.38
2022-12-18T01:03:36.901Z,102883.22
2022-12-18T01:06:08.643Z,102888.16
2022-12-18T01:08:35.933Z,102885.78
2022-12-18T01:11:08.703Z,102890.84
2022-12-18T01:13:35.516Z,102889.91
2022-12-18T01:16:02.096Z,102889.13
2022-12-18T01:18:28.624Z,102902.03
2022-12-18T01:20:55.005Z,102896.38
2022-12-18T01:23:21.439Z,102895.38
2022-12-18T01:25:47.842Z,102898.69
2022-12-18T01:28:14.316Z,102904.53
2022-12-18T01:30:40.982Z,102905.91
2022-12-18T01:33:10.185Z,102910.00
2022-12-18T01:35:42.480Z,102915.97
2022-12-18T01:38:09.067Z,102917.91
2022-12-18T01:40:35.485Z,102918.66
2022-12-18T01:43:01.882Z,102920.16
2022-12-18T01:45:30.071Z,102915.81
2022-12-18T01:48:00.250Z,102910.94
2022-12-18T01:50:40.877Z,102913.31
2022-12-18T01:53:14.069Z,102919.78
2022-12-18T01:55:52.809Z,102918.00
2022-12-18T01:58:24.834Z,102913.72
2022-12-18T02:00:51.297Z,102922.56
2022-12-18T02:03:19.902Z,102923.97
2022-12-18T02:06:06.637Z,102929.53
2022-12-18T02:08:51.872Z,102927.16
2022-12-18T02:11:27.625Z,102938.19
2022-12-18T02:14:11.772Z,102931.19
2022-12-18T02:16:53.325Z,102922.47
2022-12-18T02:19:55.865Z,102934.56
2022-12-18T02:22:40.614Z,102936.88
2022-12-18T02:25:16.092Z,102929.69
2022-12-18T02:27:46.683Z,102932.25
2022-12-18T02:35:04.599Z,102932.53
2022-12-18T02:37:34.724Z,102933.53
2022-12-18T02:40:04.591Z,102933.66
2022-12-18T02:42:33.371Z,102934.56
2022-12-18T02:45:00.940Z,102936.28
2022-12-18T02:47:35.165Z,102932.09
2022-12-18T02:50:31.693Z,102933.97
2022-12-18T02:53:15.988Z,102935.38
2022-12-18T02:55:56.124Z,102938.63
2022-12-18T02:58:47.760Z,102937.50
2022-12-18T03:01:39.525Z,102931.38
2022-12-18T03:04:12.612Z,102935.94
2022-12-18T03:06:48.428Z,102938.00
2022-12-18T03:09:20.270Z,102947.69
2022-12-18T03:12:12.762Z,102947.78
2022-12-18T03:14:41.173Z,102940.78
2022-12-18T03:17:11.594Z,102930.59
2022-12-18T03:19:43.120Z,102930.47
2022-12-18T03:22:13.895Z,102935.94
2022-12-18T03:24:50.321Z,102938.91
2022-12-18T03:27:25.154Z,102940.19
2022-12-18T03:30:08.268Z,102937.19
2022-12-18T03:32:55.527Z,102929.09
2022-12-18T03:35:33.139Z,102929.94
2022-12-18T03:37:59.667Z,102935.25
2022-12-18T03:40:35.341Z,102938.78
2022-12-18T03:43:12.447Z,102929.84
2022-12-18T03:45:46.892Z,102927.28
2022-12-18T03:48:24.475Z,102932.84
2022-12-18T03:50:58.227Z,102936.91
2022-12-18T03:53:40.573Z,102931.19
2022-12-18T03:56:08.934Z,102933.31
2022-12-18T03:58:40.416Z,102944.03
2022-12-18T04:01:32.715Z,102943.16
2022-12-18T04:04:03.187Z,102951.59
2022-12-18T04:06:34.605Z,102953.53
2022-12-18T04:09:02.065Z,102950.06
2022-12-18T04:11:30.251Z,102949.91
2022-12-18T04:13:58.438Z,102953.66
2022-12-18T04:16:25.984Z,102953.16
2022-12-18T04:19:22.283Z,102953.75
2022-12-18T04:21:50.764Z,102964.19
2022-12-18T04:24:17.918Z,102964.22
2022-12-18T04:26:53.378Z,102978.50
2022-12-18T04:29:26.088Z,102973.75
2022-12-18T04:31:52.496Z,102972.03
2022-12-18T04:34:19.897Z,102970.09
2022-12-18T04:36:50.438Z,102968.50
2022-12-18T04:39:18.915Z,102961.25
2022-12-18T04:41:46.223Z,102975.66
2022-12-18T04:44:13.512Z,102964.63
2022-12-18T04:46:39.958Z,102963.50
2022-12-18T04:49:06.478Z,102960.56
2022-12-18T04:51:33.361Z,102962.19
2022-12-18T04:53:59.749Z,102968.00
2022-12-18T04:56:26.174Z,102964.91
2022-12-18T04:58:52.673Z,102978.44
2022-12-18T05:01:19.529Z,102979.28
2022-12-18T05:03:46.366Z,102994.91
2022-12-18T05:06:12.942Z,102971.47
2022-12-18T05:08:39.358Z,102975.56
2022-12-18T05:11:12.597Z,102975.81
2022-12-18T05:13:39.655Z,102981.75
2022-12-18T05:16:07.757Z,102993.31
2022-12-18T05:18:34.624Z,102986.72
2022-12-18T05:21:01.071Z,102992.91
2022-12-18T05:23:28.100Z,102999.47
2022-12-18T05:25:58.534Z,103008.91
2022-12-18T05:28:26.564Z,102997.22
2022-12-18T05:30:55.124Z,103001.84
2022-12-18T05:33:23.025Z,103015.22
2022-12-18T05:35:54.333Z,103015.25
2022-12-18T05:38:22.326Z,103015.34
2022-12-18T05:40:49.688Z,103002.59
2022-12-18T05:43:20.917Z,103011.28
2022-12-18T05:45:48.765Z,103015.97
2022-12-18T05:48:15.625Z,103012.50
2022-12-18T05:50:46.378Z,103019.69
2022-12-18T05:53:16.149Z,103007.56
2022-12-18T05:55:43.728Z,103028.28
2022-12-18T05:58:15.339Z,103032.38
2022-12-18T06:00:43.877Z,103028.13
2022-12-18T06:03:11.570Z,103023.56
2022-12-18T06:05:40.417Z,103026.16
2022-12-18T06:08:08.583Z,103035.84
2022-12-18T06:10:35.032Z,103035.34
2022-12-18T06:13:01.880Z,103038.31
2022-12-18T06:15:28.325Z,103040.28
2022-12-18T06:17:55.165Z,103044.03
2022-12-18T06:20:21.685Z,103034.84
2022-12-18T06:22:48.079Z,103032.72
2022-12-18T06:25:14.544Z,103035.19
2022-12-18T06:27:41.040Z,103033.56
2022-12-18T06:30:09.515Z,103036.56
2022-12-18T06:32:35.972Z,103048.22
2022-12-18T06:35:02.359Z,103052.06
2022-12-18T06:37:29.208Z,103056.41
2022-12-18T06:39:55.753Z,103060.13
2022-12-18T06:42:24.154Z,103066.81
2022-12-18T06:44:50.870Z,103080.00
2022-12-18T06:47:17.265Z,103082.72
2022-12-18T06:49:43.998Z,103082.22
2022-12-18T06:52:10.398Z,103084.19
2022-12-18T06:54:36.784Z,103084.81
2022-12-18T06:57:03.244Z,103078.84
2022-12-18T06:59:29.624Z,103081.81
2022-12-18T07:01:56.206Z,103083.09
2022-12-18T07:04:22.735Z,103086.44
2022-12-18T07:06:49.131Z,103087.19
2022-12-18T07:09:15.529Z,103094.75
2022-12-18T07:11:42.629Z,103081.31
2022-12-18T07:14:09.028Z,103079.09
2022-12-18T07:16:35.455Z,103074.50
2022-12-18T07:19:01.942Z,103074.25
2022-12-18T07:21:28.557Z,103071.66
2022-12-18T07:23:54.987Z,103079.34
2022-12-18T07:26:22.537Z,103072.28
2022-12-18T07:28:49.508Z,103075.50
2022-12-18T07:31:19.085Z,103072.66
2022-12-18T07:33:46.982Z,103075.75
2022-12-18T07:36:14.030Z,103073.13
2022-12-18T07:38:41.342Z,103067.81
2022-12-18T07:41:12.978Z,103067.94
2022-12-18T07:43:40.997Z,103066.81
2022-12-18T07:46:09.657Z,103060.75
2022-12-18T07:48:36.161Z,103067.22
2022-12-18T07:51:05.220Z,103069.19
2022-12-18T07:53:32.374Z,103078.22
2022-12-18T07:56:26.103Z,103081.56
2022-12-18T07:58:48.208Z,103081.81
2022-12-18T08:01:15.389Z,103087.63
2022-12-18T08:03:42.306Z,103081.72
2022-12-18T08:06:10.328Z,103084.94
2022-12-18T08:08:36.897Z,103095.97
2022-12-18T08:11:06.597Z,103088.03
2022-12-18T08:13:33.025Z,103105.88
2022-12-18T08:16:05.924Z,103110.22
2022-12-18T08:18:37.448Z,103100.81
2022-12-18T08:21:16.358Z,103105.88
2022-12-18T08:23:43.719Z,103103.53
2022-12-18T08:26:12.523Z,103102.28
2022-12-18T08:29:09.684Z,103100.31
2022-12-18T08:31:36.152Z,103117.03
2022-12-18T08:34:02.818Z,103108.88
2022-12-18T08:36:29.406Z,103119.41
2022-12-18T08:38:55.915Z,103120.44
2022-12-18T08:41:25.044Z,103115.06
2022-12-18T08:44:10.349Z,103120.03
2022-12-18T08:46:41.044Z,103129.59
2022-12-18T08:49:08.412Z,103137.91
2022-12-18T08:51:35.444Z,103134.06
2022-12-18T08:54:02.596Z,103145.72
2022-12-18T08:56:32.925Z,103136.56
2022-12-18T08:58:59.366Z,103136.44
2022-12-18T09:01:26.267Z,103139.28
2022-12-18T09:03:52.770Z,103142.59
2022-12-18T09:06:22.685Z,103136.88
2022-12-18T09:08:49.663Z,103143.72
2022-12-18T09:11:21.810Z,103153.78
2022-12-18T09:13:54.885Z,103141.88
2022-12-18T09:16:25.009Z,103139.75
2022-12-18T09:19:02.309Z,103133.03
2022-12-18T09:21:34.404Z,103140.38
2022-12-18T09:24:04.593Z,103148.31
2022-12-18T09:26:34.413Z,103151.19
2022-12-18T09:29:00.801Z,103151.69
2022-12-18T09:31:29.961Z,103160.63
2022-12-18T09:33:57.650Z,103158.50
2022-12-18T09:36:36.093Z,103158.03
2022-12-18T09:39:07.566Z,103145.00
2022-12-18T09:41:46.824Z,103139.78
2022-12-18T09:44:22.580Z,103126.13
2022-12-18T09:46:57.856Z,103127.59
2022-12-18T09:49:29.662Z,103114.72
2022-12-18T09:52:03.132Z,103106.28
2022-12-18T09:54:38.926Z,103105.50
2022-12-18T09:57:14.542Z,103106.16
2022-12-18T09:59:43.549Z,103103.28
2022-12-18T10:02:22.609Z,103100.25
2022-12-18T10:05:05.088Z,103104.28
2022-12-18T10:07:44.941Z,103096.06
2022-12-18T10:10:38.093Z,103092.59
2022-12-18T10:13:33.275Z,103092.06
2022-12-18T10:16:14.825Z,103098.25
2022-12-18T10:19:09.205Z,103095.03
2022-12-18T10:21:56.669Z,103094.88
2022-12-18T10:24:44.454Z,103094.31
2022-12-18T10:27:17.202Z,103087.09
2022-12-18T10:29:47.127Z,103087.84
2022-12-18T10:32:25.877Z,103091.69
2022-12-18T10:35:00.498Z,103093.19
2022-12-18T10:37:29.477Z,103086.56
2022-12-18T10:40:22.012Z,103074.94
2022-12-18T10:43:04.895Z,103074.06
2022-12-18T10:45:31.280Z,103070.09
2022-12-18T10:47:57.778Z,103067.50
2022-12-18T10:51:01.806Z,103059.31
2022-12-18T10:53:26.205Z,103054.75
2022-12-18T10:55:58.806Z,103053.63
2022-12-18T10:58:39.764Z,103055.34
2022-12-18T11:01:16.606Z,103050.88
2022-12-18T11:04:02.074Z,103059.16
2022-12-18T11:06:29.600Z,103068.16
2022-12-18T11:09:18.924Z,103069.13
2022-12-18T11:11:53.150Z,103059.47
2022-12-18T11:14:23.804Z,103057.88
2022-12-18T11:19:40.680Z,103047.59
2022-12-18T11:22:28.483Z,103065.13
2022-12-18T11:25:30.827Z,103059.47
2022-12-18T11:27:55.106Z,103040.88
2022-12-18T11:30:21.438Z,103053.47
2022-12-18T11:32:50.723Z,103054.47
2022-12-18T11:35:40.802Z,103055.16
2022-12-18T11:38:18.230Z,103053.16
2022-12-18T11:40:49.410Z,103062.09
2022-12-18T11:43:36.982Z,103063.91
2022-12-18T11:46:19.376Z,103067.78
2022-12-18T11:48:53.292Z,103073.31
2022-12-18T11:51:28.625Z,103073.59
2022-12-18T11:53:55.007Z,103076.72
2022-12-18T11:56:32.905Z,103082.06
2022-12-18T11:59:36.597Z,103074.50
2022-12-18T12:02:30.577Z,103077.50
2022-12-18T12:05:22.152Z,103074.22
2022-12-18T12:08:23.312Z,103071.97
2022-12-18T12:11:14.453Z,103081.66
2022-12-18T12:13:57.638Z,103083.09
2022-12-18T12:16:31.104Z,103084.72
2022-12-18T12:19:16.590Z,103085.91
2022-12-18T12:21:53.527Z,103093.00
2022-12-18T12:24:35.214Z,103099.34
2022-12-18T12:27:14.954Z,103104.69
2022-12-18T12:29:56.589Z,103096.13
2022-12-18T12:32:46.651Z,103092.31
2022-12-18T12:35:49.938Z,103092.31
2022-12-18T12:38:32.308Z,103080.16
2022-12-18T12:41:32.088Z,103063.53
2022-12-18T12:44:02.106Z,103064.94
2022-12-18T12:46:32.189Z,103059.22
2022-12-18T12:49:02.320Z,103051.38
2022-12-18T12:51:34.777Z,103050.25
2022-12-18T12:54:03.952Z,103046.03
2022-12-18T12:56:46.850Z,103048.91
2022-12-18T12:59:28.574Z,103038.06
2022-12-18T13:02:13.891Z,103039.00
2022-12-18T13:04:51.728Z,103041.94
2022-12-18T13:07:34.633Z,103050.59
2022-12-18T13:10:26.966Z,103043.97
2022-12-18T13:13:17.104Z,103044.28
2022-12-18T13:16:05.768Z,103036.66
2022-12-18T13:18:33.263Z,103039.13
2022-12-18T13:21:03.090Z,103028.44
2022-12-18T13:23:33.706Z,103022.94
2022-12-18T13:26:12.044Z,103022.66
2022-12-18T13:28:53.466Z,103021.63
2022-12-18T13:31:41.825Z,103021.91
2022-12-18T13:34:27.524Z,103023.16
2022-12-18T13:36:58.264Z,103027.75
2022-12-18T13:39:34.811Z,103023.94
2022-12-18T13:42:08.507Z,103033.06
2022-12-18T13:44:41.599Z,103023.88
2022-12-18T13:47:34.784Z,103021.03
2022-12-18T13:50:10.005Z,103022.00
2022-12-18T13:52:40.141Z,103029.59
2022-12-18T13:55:17.115Z,103029.59
2022-12-18T13:57:43.525Z,103013.34
2022-12-18T14:00:30.621Z,103012.31
2022-12-18T14:02:58.599Z,103011.59
2022-12-18T14:05:27.338Z,103010.88
2022-12-18T14:07:55.483Z,103000.97
2022-12-18T14:10:44.430Z,102998.16
2022-12-18T14:13:16.110Z,102994.28
2022-12-18T14:15:47.493Z,102990.41
2022-12-18T14:18:39.927Z,102986.25
2022-12-18T14:21:07.635Z,102982.59
2022-12-18T14:23:40.620Z,102976.28
2022-12-18T14:26:28.105Z,102969.66
2022-12-18T14:28:54.930Z,102967.22
2022-12-18T14:31:23.916Z,102961.72
2022-12-18T14:33:50.870Z,102961.91
2022-12-18T14:36:21.242Z,102964.97
2022-12-18T14:38:54.604Z,102968.56
2022-12-18T14:41:22.582Z,102959.78
2022-12-18T14:43:51.185Z,102959.44
2022-12-18T14:46:37.649Z,102961.75
2022-12-18T14:49:25.256Z,102978.31
2022-12-18T14:52:03.482Z,102974.50
2022-12-18T14:54:32.124Z,102979.28
2022-12-18T14:57:05.262Z,102975.44
2022-12-18T14:59:32.509Z,102971.16
2022-12-18T15:02:06.041Z,102972.47
2022-12-18T15:04:44.568Z,102972.88
2022-12-18T15:07:21.572Z,102976.09
2022-12-18T15:10:14.817Z,102971.69
2022-12-18T15:12:46.503Z,102955.56
2022-12-18T15:15:37.768Z,102943.00
2022-12-18T15:18:17.825Z,102946.94
2022-12-18T15:20:56.711Z,102946.63
2022-12-18T15:23:26.553Z,102946.47
2022-12-18T15:26:06.171Z,102940.16
2022-12-18T15:28:46.158Z,102948.00
2022-12-18T15:31:13.096Z,102960.63
2022-12-18T15:33:41.179Z,102982.94
2022-12-18T15:36:13.426Z,102983.53
2022-12-18T15:38:40.050Z,102987.88
2022-12-18T15:41:14.625Z,102991.19
2022-12-18T15:43:42.748Z,102986.41
2022-12-18T15:46:19.294Z,102981.34
2022-12-18T15:48:48.139Z,102966.59
2022-12-18T15:51:36.432Z,102959.25
2022-12-18T15:54:05.808Z,102957.66
2022-12-18T15:56:51.018Z,102947.69
2022-12-18T15:59:19.196Z,102948.06
2022-12-18T16:01:48.194Z,102950.63
2022-12-18T16:04:17.550Z,102955.97
2022-12-18T16:07:13.300Z,102957.91
2022-12-18T16:09:30.554Z,102966.47
2022-12-18T16:11:56.956Z,102973.00
2022-12-18T16:14:29.532Z,102970.59
2022-12-18T16:16:58.868Z,102964.31
2022-12-18T16:19:25.602Z,102963.69
2022-12-18T16:21:53.918Z,102954.75
2022-12-18T16:24:22.915Z,102943.91
2022-12-18T16:26:49.582Z,102950.53
2022-12-18T16:29:15.964Z,102947.09
2022-12-18T16:31:42.665Z,102934.34
2022-12-18T16:34:29.953Z,102937.75
2022-12-18T16:37:06.143Z,102942.03
2022-12-18T16:39:34.945Z,102932.97
2022-12-18T16:42:06.045Z,102929.69
2022-12-18T16:44:33.365Z,102936.88
2022-12-18T16:47:02.869Z,102936.63
2022-12-18T16:49:29.833Z,102941.00
2022-12-18T16:51:56.438Z,102936.00
2022-12-18T16:54:22.962Z,102938.28
2022-12-18T16:56:51.329Z,102949.69
2022-12-18T16:59:18.711Z,102944.66
2022-12-18T17:01:47.221Z,102956.97
2022-12-18T17:04:14.624Z,102956.44
2022-12-18T17:06:43.396Z,102955.06
2022-12-18T17:09:16.246Z,102957.06
2022-12-18T17:11:43.705Z,102947.13
2022-12-18T17:14:14.286Z,102939.84
2022-12-18T17:16:41.106Z,102944.78
2022-12-18T17:19:10.972Z,102945.66
2022-12-18T17:21:41.870Z,102947.03
2022-12-18T17:24:08.494Z,102945.16
2022-12-18T17:26:40.879Z,102942.78
2022-12-18T17:29:07.281Z,102933.06
2022-12-18T17:31:34.519Z,102929.75
2022-12-18T17:34:04.820Z,102934.00
2022-12-18T17:36:32.292Z,102927.16
2022-12-18T17:39:01.826Z,102906.28
2022-12-18T17:41:29.441Z,102913.34
2022-12-18T17:44:01.450Z,102911.06
2022-12-18T17:46:30.623Z,102908.75
2022-12-18T17:48:58.395Z,102910.81
2022-12-18T17:51:25.703Z,102913.09
2022-12-18T17:53:52.383Z,102904.81
2022-12-18T17:56:20.104Z,102905.34
2022-12-18T17:58:47.948Z,102898.56
2022-12-18T18:01:17.602Z,102889.50
2022-12-18T18:03:44.861Z,102885.38
2022-12-18T18:06:11.884Z,102880.75
2022-12-18T18:08:38.796Z,102876.13
2022-12-18T18:11:30.848Z,102877.97
2022-12-18T18:14:00.602Z,102875.50
2022-12-18T18:16:34.244Z,102867.25
2022-12-18T18:19:03.917Z,102868.38
2022-12-18T18:21:31.038Z,102857.19
2022-12-18T18:24:04.729Z,102852.38
2022-12-18T18:26:33.214Z,102852.19
2022-12-18T18:29:00.738Z,102853.13
2022-12-18T18:31:31.422Z,102852.81
2022-12-18T18:33:58.574Z,102853.59
2022-12-18T18:36:25.438Z,102858.41
2022-12-18T18:38:52.765Z,102847.19
2022-12-18T18:41:19.685Z,102842.34
2022-12-18T18:43:46.242Z,102828.53
2022-12-18T18:46:16.394Z,102821.94
2022-12-18T18:48:43.852Z,102828.81
2022-12-18T18:51:15.590Z,102824.94
2022-12-18T18:53:49.273Z,102816.22
2022-12-18T18:56:56.172Z,102808.50
2022-12-18T18:59:04.100Z,102793.94
2022-12-18T19:01:30.594Z,102794.72
2022-12-18T19:03:57.125Z,102788.66
2022-12-18T19:06:27.409Z,102784.53
2022-12-18T19:08:55.575Z,102773.72
2022-12-18T19:11:41.876Z,102782.34
2022-12-18T19:14:10.258Z,102780.53
2022-12-18T19:16:37.203Z,102784.53
2022-12-18T19:19:04.358Z,102783.78
2022-12-18T19:21:34.126Z,102777.22
2022-12-18T19:24:02.628Z,102770.88
2022-12-18T19:26:29.224Z,102776.88
2022-12-18T19:29:02.050Z,102769.41
2022-12-18T19:31:34.794Z,102771.94
2022-12-18T19:34:02.923Z,102770.34
2022-12-18T19:36:30.673Z,102776.72
2022-12-18T19:38:59.708Z,102778.91
2022-12-18T19:41:29.103Z,102791.38
2022-12-18T19:43:58.381Z,102786.78
2022-12-18T19:46:25.032Z,102791.38
2022-12-18T19:48:51.778Z,102793.66
2022-12-18T19:51:19.429Z,102787.59
2022-12-18T19:53:46.757Z,102785.41
2022-12-18T19:56:15.600Z,102780.31
2022-12-18T19:58:42.395Z,102788.41
2022-12-18T20:01:09.084Z,102792.47
2022-12-18T20:03:37.403Z,102792.84
2022-12-18T20:06:25.876Z,102791.63
2022-12-18T20:08:54.033Z,102768.66
2022-12-18T20:11:25.582Z,102771.75
2022-12-18T20:13:52.329Z,102770.81
2022-12-18T20:16:18.760Z,102764.06
2022-12-18T20:18:45.214Z,102760.00
2022-12-18T20:21:14.002Z,102742.72
2022-12-18T20:23:41.462Z,102724.31
2022-12-18T20:26:08.645Z,102710.53
2022-12-18T20:28:35.510Z,102705.75
2022-12-18T20:31:04.612Z,102706.59
2022-12-18T20:33:31.425Z,102711.38
2022-12-18T20:36:06.698Z,102713.94
2022-12-18T20:38:35.349Z,102719.03
2022-12-18T20:41:07.597Z,102722.59
2022-12-18T20:43:34.147Z,102717.13
2022-12-18T20:46:06.164Z,102714.00
2022-12-18T20:48:33.010Z,102732.09
2022-12-18T20:51:03.918Z,102736.03
2022-12-18T20:53:30.624Z,102727.28
2022-12-18T20:55:57.035Z,102717.13
2022-12-18T20:58:23.829Z,102707.34
2022-12-18T21:00:50.720Z,102700.16
2022-12-18T21:03:18.792Z,102703.03
2022-12-18T21:05:45.253Z,102705.75
2022-12-18T21:08:11.702Z,102699.50
2022-12-18T21:10:42.355Z,102698.59
2022-12-18T21:13:09.525Z,102686.97
2022-12-18T21:15:37.688Z,102703.09
2022-12-18T21:18:04.339Z,102699.22
2022-12-18T21:20:31.194Z,102701.66
2022-12-18T21:22:59.168Z,102697.63
2022-12-18T21:25:38.504Z,102698.66
2022-12-18T21:28:04.894Z,102712.50
2022-12-18T21:30:31.313Z,102706.13
2022-12-18T21:32:57.778Z,102711.13
2022-12-18T21:35:24.545Z,102710.84
2022-12-18T21:37:53.309Z,102704.25
2022-12-18T21:40:19.748Z,102706.00
2022-12-18T21:43:04.615Z,102706.00
2022-12-18T21:45:31.012Z,102704.97
2022-12-18T21:47:57.523Z,102709.88
2022-12-18T21:50:23.989Z,102708.00
2022-12-18T21:52:50.397Z,102707.44
2022-12-18T21:55:16.878Z,102690.47
2022-12-18T21:57:43.266Z,102699.06
2022-12-18T22:00:19.161Z,102694.88
2022-12-18T22:02:46.828Z,102689.88
2022-12-18T22:05:13.507Z,102686.25
2022-12-18T22:07:39.945Z,102682.41
2022-12-18T22:10:06.814Z,102681.53
2022-12-18T22:12:41.597Z,102678.22
2022-12-18T22:15:13.881Z,102659.13
2022-12-18T22:17:48.158Z,102654.50
2022-12-18T22:20:14.584Z,102646.31
2022-12-18T22:22:40.980Z,102648.47
2022-12-18T22:25:07.859Z,102647.63
2022-12-18T22:27:34.247Z,102645.59
2022-12-18T22:30:06.698Z,102643.59
2022-12-18T22:32:34.923Z,102627.59
2022-12-18T22:35:10.448Z,102630.94
2022-12-18T22:37:40.624Z,102628.78
2022-12-18T22:40:07.651Z,102619.59
2022-12-18T22:42:35.080Z,102611.69
2022-12-18T22:45:01.618Z,102609.22
2022-12-18T22:47:30.135Z,102607.69
2022-12-18T22:49:57.608Z,102600.75
2022-12-18T22:52:25.030Z,102601.34
2022-12-18T22:54:53.371Z,102594.72
2022-12-18T22:57:21.514Z,102596.16
2022-12-18T22:59:47.958Z,102588.69
2022-12-18T23:02:14.465Z,102582.06
2022-12-18T23:04:40.991Z,102580.22
2022-12-18T23:07:07.420Z,102575.03
2022-12-18T23:09:34.349Z,102565.94
2022-12-18T23:12:01.121Z,102563.94
2022-12-18T23:14:28.812Z,102556.19
2022-12-18T23:16:55.269Z,102552.28
2022-12-18T23:19:23.446Z,102545.16
2022-12-18T23:21:50.457Z,102548.75
2022-12-18T23:24:16.846Z,102541.69
2022-12-18T23:26:43.239Z,102537.50
2022-12-18T23:29:09.747Z,102540.09
2022-12-18T23:31:38.587Z,102545.00
2022-12-18T23:34:06.184Z,102543.28
2022-12-18T23:36:37.663Z,102531.91
2022-12-18T23:39:12.453Z,102527.47
2022-12-18T23:41:45.608Z,102506.47
2022-12-18T23:44:11.998Z,102502.59
2022-12-18T23:46:38.439Z,102499.56
2022-12-18T23:49:05.847Z,102486.94
2022-12-18T23:51:33.074Z,102484.78
2022-12-18T23:54:04.257Z,102478.47
2022-12-18T23:56:30.775Z,102469.81
2022-12-18T23:58:57.472Z,102466.25
